sensor_id;sensor_type;location;lat;lon;timestamp;P1;durP1;ratioP1;P2;durP2;ratioP2
15557;SDS011;7880;50.110;9.372;2023-04-25T00:02:22;11.761538461538464;;;7.299999999999998;;
15557;SDS011;7880;50.110;9.372;2023-04-25T00:07:25;11.507692307692308;;;7.299999999999998;;
15557;SDS011;7880;50.110;9.372;2023-04-25T00:12:29;9.853846153846153;;;8.200000000000001;;
15557;SDS011;7880;50.110;9.372;2023-04-25T00:17:34;10.469230769230771;;;7.599999999999999;;
15557;SDS011;7880;50.110;9.372;2023-04-25T00:22:44;12.161538461538463;;;7.830769230769231;;
15557;SDS011;7880;50.110;9.372;2023-04-25T00:27:51;11.06153846153846;;;8.39230769230769;;
15557;SDS011;7880;50.110;9.372;2023-04-25T00:33:07;11.023076923076927;;;7.061538461538462;;
15557;SDS011;7880;50.110;9.372;2023-04-25T00:38:12;13.415384615384617;;;8.0;;
15557;SDS011;7880;50.110;9.372;2023-04-25T00:43:24;10.523076923076925;;;7.376923076923079;;
15557;SDS011;7880;50.110;9.372;2023-04-25T00:48:33;11.423076923076918;;;8.0;;
15557;SDS011;7880;50.110;9.372;2023-04-25T00:53:33;12.461538461538462;;;7.900000000000001;;
15557;SDS011;7880;50.110;9.372;2023-04-25T00:58:37;11.17692307692308;;;7.661538461538461;;
15557;SDS011;7880;50.110;9.372;2023-04-25T01:03:51;11.515384615384615;;;7.061538461538462;;
15557;SDS011;7880;50.110;9.372;2023-04-25T01:08:49;10.030769230769229;;;7.469230769230771;;
15557;SDS011;7880;50.110;9.372;2023-04-25T01:13:52;10.269230769230766;;;6.700000000000002;;
15557;SDS011;7880;50.110;9.372;2023-04-25T01:18:57;8.823076923076924;;;6.530769230769229;;
15557;SDS011;7880;50.110;9.372;2023-04-25T01:24:05;8.330769230769231;;;6.1;;
15557;SDS011;7880;50.110;9.372;2023-04-25T01:29:07;7.700000000000002;;;5.1692307692307695;;
15557;SDS011;7880;50.110;9.372;2023-04-25T01:34:11;6.969230769230771;;;5.200000000000001;;
15557;SDS011;7880;50.110;9.372;2023-04-25T01:39:15;5.9923076923076914;;;5.130769230769232;;
15557;SDS011;7880;50.110;9.372;2023-04-25T01:44:19;7.938461538461538;;;4.569230769230769;;
15557;SDS011;7880;50.110;9.372;2023-04-25T01:49:22;8.5;;;5.53076923076923;;
15557;SDS011;7880;50.110;9.372;2023-04-25T01:54:27;7.769230769230769;;;5.299999999999999;;
15557;SDS011;7880;50.110;9.372;2023-04-25T01:59:30;6.130769230769232;;;5.5;;
15557;SDS011;7880;50.110;9.372;2023-04-25T02:04:39;8.26923076923077;;;6.06923076923077;;
15557;SDS011;7880;50.110;9.372;2023-04-25T02:09:38;9.238461538461538;;;6.4;;
15557;SDS011;7880;50.110;9.372;2023-04-25T02:14:43;8.584615384615383;;;6.900000000000001;;
15557;SDS011;7880;50.110;9.372;2023-04-25T02:19:49;9.969230769230771;;;7.099999999999999;;
15557;SDS011;7880;50.110;9.372;2023-04-25T02:24:56;11.538461538461538;;;8.030769230769229;;
15557;SDS011;7880;50.110;9.372;2023-04-25T02:29:57;11.176923076923076;;;8.969230769230771;;
15557;SDS011;7880;50.110;9.372;2023-04-25T02:35:04;12.66923076923077;;;7.93076923076923;;
15557;SDS011;7880;50.110;9.372;2023-04-25T02:40:07;12.161538461538463;;;7.661538461538461;;
15557;SDS011;7880;50.110;9.372;2023-04-25T02:45:11;17.576923076923077;;;9.569230769230769;;
15557;SDS011;7880;50.110;9.372;2023-04-25T02:50:19;14.976923076923072;;;9.569230769230769;;
15557;SDS011;7880;50.110;9.372;2023-04-25T02:55:31;15.292307692307693;;;9.89230769230769;;
15557;SDS011;7880;50.110;9.372;2023-04-25T03:00:35;17.94615384615384;;;9.569230769230769;;
15557;SDS011;7880;50.110;9.372;2023-04-25T03:05:39;14.60769230769231;;;8.930769230769231;;
15557;SDS011;7880;50.110;9.372;2023-04-25T03:10:45;14.169230769230769;;;8.930769230769231;;
15557;SDS011;7880;50.110;9.372;2023-04-25T03:15:49;12.730769230769235;;;8.930769230769231;;
15557;SDS011;7880;50.110;9.372;2023-04-25T03:19:34;13.5;;;9.5;;
15557;SDS011;7880;50.110;9.372;2023-04-25T03:24:55;13.030769230769229;;;8.330769230769231;;
15557;SDS011;7880;50.110;9.372;2023-04-25T03:29:44;14.069230769230767;;;8.799999999999999;;
15557;SDS011;7880;50.110;9.372;2023-04-25T03:34:48;11.123076923076924;;;7.799999999999998;;
15557;SDS011;7880;50.110;9.372;2023-04-25T03:39:52;13.900000000000004;;;11.030769230769229;;
15557;SDS011;7880;50.110;9.372;2023-04-25T03:44:54;15.907692307692304;;;9.569230769230769;;
15557;SDS011;7880;50.110;9.372;2023-04-25T03:50:22;19.95384615384615;;;10.13846153846154;;
15557;SDS011;7880;50.110;9.372;2023-04-25T03:55:05;14.846153846153847;;;9.961538461538462;;
15557;SDS011;7880;50.110;9.372;2023-04-25T04:00:12;15.738461538461536;;;9.900000000000002;;
15557;SDS011;7880;50.110;9.372;2023-04-25T04:05:11;14.146153846153844;;;9.823076923076924;;
15557;SDS011;7880;50.110;9.372;2023-04-25T04:10:15;14.146153846153844;;;10.123076923076924;;
15557;SDS011;7880;50.110;9.372;2023-04-25T04:15:20;17.992307692307694;;;10.86153846153846;;
15557;SDS011;7880;50.110;9.372;2023-04-25T04:20:23;20.23076923076923;;;11.530769230769229;;
15557;SDS011;7880;50.110;9.372;2023-04-25T04:25:30;14.630769230769225;;;9.86153846153846;;
15557;SDS011;7880;50.110;9.372;2023-04-25T04:30:37;18.599999999999998;;;11.038461538461538;;
15557;SDS011;7880;50.110;9.372;2023-04-25T04:35:37;15.39230769230769;;;10.069230769230769;;
15557;SDS011;7880;50.110;9.372;2023-04-25T04:40:43;16.376923076923074;;;10.06153846153846;;
15557;SDS011;7880;50.110;9.372;2023-04-25T04:45:47;29.861538461538466;;;11.5;;
15557;SDS011;7880;50.110;9.372;2023-04-25T04:50:52;16.669230769230765;;;10.599999999999998;;
15557;SDS011;7880;50.110;9.372;2023-04-25T04:55:56;20.77692307692308;;;10.869230769230771;;
15557;SDS011;7880;50.110;9.372;2023-04-25T05:01:02;21.530769230769234;;;10.961538461538462;;
15557;SDS011;7880;50.110;9.372;2023-04-25T05:06:07;21.061538461538458;;;12.130769230769225;;
15557;SDS011;7880;50.110;9.372;2023-04-25T05:11:12;22.04615384615385;;;12.06153846153846;;
15557;SDS011;7880;50.110;9.372;2023-04-25T05:16:14;17.207692307692312;;;11.092307692307694;;
15557;SDS011;7880;50.110;9.372;2023-04-25T05:21:18;20.015384615384615;;;10.39230769230769;;
15557;SDS011;7880;50.110;9.372;2023-04-25T05:26:24;14.569230769230767;;;8.330769230769231;;
15557;SDS011;7880;50.110;9.372;2023-04-25T05:31:27;17.099999999999998;;;8.446153846153846;;
15557;SDS011;7880;50.110;9.372;2023-04-25T05:36:32;13.938461538461542;;;6.5;;
15557;SDS011;7880;50.110;9.372;2023-04-25T05:41:35;20.115384615384617;;;6.200000000000002;;
15557;SDS011;7880;50.110;9.372;2023-04-25T05:47:18;12.976923076923072;;;6.0;;
15557;SDS011;7880;50.110;9.372;2023-04-25T05:52:23;13.376923076923076;;;5.6692307692307695;;
15557;SDS011;7880;50.110;9.372;2023-04-25T05:57:33;11.646153846153847;;;5.969230769230771;;
15557;SDS011;7880;50.110;9.372;2023-04-25T06:02:33;14.60769230769231;;;5.700000000000002;;
15557;SDS011;7880;50.110;9.372;2023-04-25T06:07:34;9.669230769230769;;;5.230769230769231;;
15557;SDS011;7880;50.110;9.372;2023-04-25T06:12:38;13.915384615384614;;;4.3999999999999995;;
15557;SDS011;7880;50.110;9.372;2023-04-25T06:17:44;9.46923076923077;;;4.2615384615384615;;
15557;SDS011;7880;50.110;9.372;2023-04-25T06:22:47;8.007692307692306;;;4.200000000000001;;
15557;SDS011;7880;50.110;9.372;2023-04-25T06:27:53;9.746153846153847;;;3.969230769230769;;
15557;SDS011;7880;50.110;9.372;2023-04-25T06:32:57;8.353846153846156;;;4.061538461538462;;
15557;SDS011;7880;50.110;9.372;2023-04-25T06:38:02;7.061538461538462;;;3.8615384615384616;;
15557;SDS011;7880;50.110;9.372;2023-04-25T06:43:10;9.576923076923078;;;4.299999999999999;;
15557;SDS011;7880;50.110;9.372;2023-04-25T06:48:13;13.5;;;3.7000000000000006;;
15557;SDS011;7880;50.110;9.372;2023-04-25T06:53:18;11.238461538461536;;;3.8307692307692305;;
15557;SDS011;7880;50.110;9.372;2023-04-25T06:58:22;10.346153846153847;;;4.700000000000001;;
15557;SDS011;7880;50.110;9.372;2023-04-25T07:03:30;11.27692307692308;;;3.5;;
15557;SDS011;7880;50.110;9.372;2023-04-25T07:08:33;4.738461538461538;;;3.3307692307692305;;
15557;SDS011;7880;50.110;9.372;2023-04-25T07:13:38;10.492307692307694;;;4.3999999999999995;;
15557;SDS011;7880;50.110;9.372;2023-04-25T07:18:42;8.876923076923076;;;4.338461538461538;;
15557;SDS011;7880;50.110;9.372;2023-04-25T07:23:47;6.60769230769231;;;4.269230769230769;;
15557;SDS011;7880;50.110;9.372;2023-04-25T07:28:51;6.5;;;4.23076923076923;;
15557;SDS011;7880;50.110;9.372;2023-04-25T07:33:55;11.33076923076923;;;4.730769230769231;;
15557;SDS011;7880;50.110;9.372;2023-04-25T07:38:59;9.169230769230769;;;4.8999999999999995;;
15557;SDS011;7880;50.110;9.372;2023-04-25T07:44:02;8.561538461538461;;;4.630769230769232;;
15557;SDS011;7880;50.110;9.372;2023-04-25T07:49:06;11.599999999999996;;;4.23076923076923;;
15557;SDS011;7880;50.110;9.372;2023-04-25T07:54:16;6.0076923076923086;;;4.038461538461538;;
15557;SDS011;7880;50.110;9.372;2023-04-25T07:59:15;6.807692307692306;;;3.06923076923077;;
15557;SDS011;7880;50.110;9.372;2023-04-25T08:04:19;3.56923076923077;;;2.6000000000000005;;
15557;SDS011;7880;50.110;9.372;2023-04-25T08:09:25;6.807692307692306;;;3.56923076923077;;
15557;SDS011;7880;50.110;9.372;2023-04-25T08:14:31;9.230769230769234;;;3.130769230769232;;
15557;SDS011;7880;50.110;9.372;2023-04-25T08:19:33;4.423076923076923;;;2.530769230769231;;
15557;SDS011;7880;50.110;9.372;2023-04-25T08:23:49;9.061538461538463;;;3.2999999999999994;;
15557;SDS011;7880;50.110;9.372;2023-04-25T08:28:54;6.723076923076923;;;3.399999999999999;;
15557;SDS011;7880;50.110;9.372;2023-04-25T08:34:01;5.6230769230769235;;;3.100000000000001;;
15557;SDS011;7880;50.110;9.372;2023-04-25T08:39:03;4.630769230769232;;;2.969230769230769;;
15557;SDS011;7880;50.110;9.372;2023-04-25T08:44:08;6.0076923076923086;;;2.3999999999999995;;
15557;SDS011;7880;50.110;9.372;2023-04-25T08:49:12;4.138461538461539;;;2.369230769230769;;
15557;SDS011;7880;50.110;9.372;2023-04-25T08:54:16;5.230769230769231;;;2.530769230769231;;
15557;SDS011;7880;50.110;9.372;2023-04-25T08:59:21;4.138461538461539;;;2.430769230769231;;
15557;SDS011;7880;50.110;9.372;2023-04-25T09:04:29;4.338461538461538;;;2.6000000000000005;;
15557;SDS011;7880;50.110;9.372;2023-04-25T09:09:36;4.469230769230769;;;2.6000000000000005;;
15557;SDS011;7880;50.110;9.372;2023-04-25T09:14:39;6.823076923076922;;;2.7;;
15557;SDS011;7880;50.110;9.372;2023-04-25T09:19:46;5.615384615384613;;;2.3999999999999995;;
15557;SDS011;7880;50.110;9.372;2023-04-25T09:24:48;5.292307692307692;;;2.6000000000000005;;
15557;SDS011;7880;50.110;9.372;2023-04-25T09:29:56;4.93076923076923;;;2.6000000000000005;;
15557;SDS011;7880;50.110;9.372;2023-04-25T09:34:55;5.56923076923077;;;2.969230769230769;;
15557;SDS011;7880;50.110;9.372;2023-04-25T09:40:03;7.6230769230769235;;;2.9384615384615382;;
15557;SDS011;7880;50.110;9.372;2023-04-25T09:45:05;4.5307692307692315;;;2.1307692307692307;;
15557;SDS011;7880;50.110;9.372;2023-04-25T09:50:13;3.7692307692307705;;;2.3999999999999995;;
15557;SDS011;7880;50.110;9.372;2023-04-25T09:55:13;4.86923076923077;;;2.3999999999999995;;
15557;SDS011;7880;50.110;9.372;2023-04-25T10:00:18;5.1000000000000005;;;2.530769230769231;;
15557;SDS011;7880;50.110;9.372;2023-04-25T10:05:22;5.438461538461538;;;3.06923076923077;;
15557;SDS011;7880;50.110;9.372;2023-04-25T10:10:28;4.538461538461539;;;2.7384615384615376;;
15557;SDS011;7880;50.110;9.372;2023-04-25T10:15:34;4.06923076923077;;;3.0;;
15557;SDS011;7880;50.110;9.372;2023-04-25T10:20:44;4.738461538461538;;;2.5;;
15557;SDS011;7880;50.110;9.372;2023-04-25T10:25:44;5.3307692307692305;;;2.93076923076923;;
15557;SDS011;7880;50.110;9.372;2023-04-25T10:30:58;5.969230769230771;;;3.7999999999999994;;
15557;SDS011;7880;50.110;9.372;2023-04-25T10:35:57;4.3999999999999995;;;3.0;;
15557;SDS011;7880;50.110;9.372;2023-04-25T10:41:03;8.507692307692306;;;4.1000000000000005;;
15557;SDS011;7880;50.110;9.372;2023-04-25T10:46:15;4.8076923076923075;;;3.653846153846155;;
15557;SDS011;7880;50.110;9.372;2023-04-25T10:51:12;6.807692307692306;;;3.7999999999999994;;
15557;SDS011;7880;50.110;9.372;2023-04-25T10:56:22;8.599999999999998;;;4.33076923076923;;
15557;SDS011;7880;50.110;9.372;2023-04-25T11:01:24;5.538461538461541;;;3.969230769230769;;
15557;SDS011;7880;50.110;9.372;2023-04-25T11:06:32;8.36923076923077;;;3.899999999999999;;
15557;SDS011;7880;50.110;9.372;2023-04-25T11:11:31;6.56923076923077;;;3.399999999999999;;
15557;SDS011;7880;50.110;9.372;2023-04-25T11:16:41;4.0;;;3.2;;
15557;SDS011;7880;50.110;9.372;2023-04-25T11:21:41;8.73076923076923;;;4.6000000000000005;;
15557;SDS011;7880;50.110;9.372;2023-04-25T11:26:53;6.561538461538462;;;3.5;;
15557;SDS011;7880;50.110;9.372;2023-04-25T11:32:01;7.376923076923076;;;3.600000000000001;;
15557;SDS011;7880;50.110;9.372;2023-04-25T11:37:13;5.630769230769232;;;3.2;;
15557;SDS011;7880;50.110;9.372;2023-04-25T11:42:11;4.884615384615385;;;2.830769230769231;;
15557;SDS011;7880;50.110;9.372;2023-04-25T11:47:05;4.569230769230769;;;3.0;;
15557;SDS011;7880;50.110;9.372;2023-04-25T11:52:17;5.738461538461537;;;2.0;;
15557;SDS011;7880;50.110;9.372;2023-04-25T11:57:18;6.830769230769231;;;2.530769230769231;;
15557;SDS011;7880;50.110;9.372;2023-04-25T12:02:24;4.338461538461538;;;2.369230769230769;;
15557;SDS011;7880;50.110;9.372;2023-04-25T12:07:28;3.600000000000001;;;1.8000000000000005;;
15557;SDS011;7880;50.110;9.372;2023-04-25T12:12:32;6.86153846153846;;;2.030769230769231;;
15557;SDS011;7880;50.110;9.372;2023-04-25T12:17:33;4.869230769230769;;;1.6;;
15557;SDS011;7880;50.110;9.372;2023-04-25T12:22:37;3.600000000000001;;;1.8000000000000005;;
15557;SDS011;7880;50.110;9.372;2023-04-25T12:27:44;4.738461538461538;;;2.669230769230769;;
15557;SDS011;7880;50.110;9.372;2023-04-25T12:32:48;2.230769230769231;;;1.4307692307692308;;
15557;SDS011;7880;50.110;9.372;2023-04-25T12:37:56;5.038461538461539;;;1.969230769230769;;
15557;SDS011;7880;50.110;9.372;2023-04-25T12:42:55;4.061538461538462;;;2.030769230769231;;
15557;SDS011;7880;50.110;9.372;2023-04-25T12:48:00;5.607692307692309;;;2.0;;
15557;SDS011;7880;50.110;9.372;2023-04-25T12:53:04;4.369230769230769;;;2.330769230769231;;
15557;SDS011;7880;50.110;9.372;2023-04-25T12:58:10;8.446153846153845;;;2.338461538461538;;
15557;SDS011;7880;50.110;9.372;2023-04-25T13:03:14;5.107692307692308;;;2.0692307692307694;;
15557;SDS011;7880;50.110;9.372;2023-04-25T13:08:19;2.8;;;1.8000000000000005;;
15557;SDS011;7880;50.110;9.372;2023-04-25T13:13:23;6.976923076923078;;;2.3000000000000003;;
15557;SDS011;7880;50.110;9.372;2023-04-25T13:18:26;7.10769230769231;;;2.0;;
15557;SDS011;7880;50.110;9.372;2023-04-25T13:23:32;1.8846153846153846;;;1.6;;
15557;SDS011;7880;50.110;9.372;2023-04-25T13:28:01;6.299999999999998;;;2.1615384615384614;;
15557;SDS011;7880;50.110;9.372;2023-04-25T13:33:07;5.561538461538462;;;2.1307692307692307;;
15557;SDS011;7880;50.110;9.372;2023-04-25T13:38:10;6.776923076923077;;;2.030769230769231;;
15557;SDS011;7880;50.110;9.372;2023-04-25T13:43:18;5.338461538461538;;;2.0;;
15557;SDS011;7880;50.110;9.372;2023-04-25T13:48:18;3.169230769230769;;;1.5;;
15557;SDS011;7880;50.110;9.372;2023-04-25T13:53:24;7.10769230769231;;;2.3000000000000003;;
15557;SDS011;7880;50.110;9.372;2023-04-25T13:58:34;9.623076923076924;;;2.030769230769231;;
15557;SDS011;7880;50.110;9.372;2023-04-25T14:03:30;4.315384615384615;;;1.7307692307692308;;
15557;SDS011;7880;50.110;9.372;2023-04-25T14:08:37;6.376923076923076;;;2.269230769230769;;
15557;SDS011;7880;50.110;9.372;2023-04-25T14:13:52;5.023076923076922;;;2.1307692307692307;;
15557;SDS011;7880;50.110;9.372;2023-04-25T14:18:45;6.976923076923078;;;2.469230769230769;;
15557;SDS011;7880;50.110;9.372;2023-04-25T14:23:51;9.269230769230768;;;2.5;;
15557;SDS011;7880;50.110;9.372;2023-04-25T14:28:52;7.807692307692306;;;2.469230769230769;;
15557;SDS011;7880;50.110;9.372;2023-04-25T14:34:32;5.184615384615384;;;2.6307692307692316;;
15557;SDS011;7880;50.110;9.372;2023-04-25T14:39:37;6.784615384615386;;;2.3615384615384616;;
15557;SDS011;7880;50.110;9.372;2023-04-25T14:44:42;4.569230769230769;;;2.3000000000000003;;
15557;SDS011;7880;50.110;9.372;2023-04-25T14:49:53;9.207692307692309;;;2.161538461538462;;
15557;SDS011;7880;50.110;9.372;2023-04-25T14:54:51;6.623076923076924;;;3.2692307692307705;;
15557;SDS011;7880;50.110;9.372;2023-04-25T14:59:54;2.969230769230769;;;2.1999999999999997;;
15557;SDS011;7880;50.110;9.372;2023-04-25T15:04:57;4.038461538461538;;;2.269230769230769;;
15557;SDS011;7880;50.110;9.372;2023-04-25T15:10:03;4.469230769230769;;;2.1307692307692307;;
15557;SDS011;7880;50.110;9.372;2023-04-25T15:15:11;9.0;;;3.7692307692307705;;
15557;SDS011;7880;50.110;9.372;2023-04-25T15:20:22;5.4;;;2.630769230769231;;
15557;SDS011;7880;50.110;9.372;2023-04-25T15:25:17;10.5;;;3.2692307692307705;;
15557;SDS011;7880;50.110;9.372;2023-04-25T15:30:25;8.10769230769231;;;2.7307692307692295;;
15557;SDS011;7880;50.110;9.372;2023-04-25T15:35:31;6.60769230769231;;;2.8;;
15557;SDS011;7880;50.110;9.372;2023-04-25T15:40:33;8.930769230769231;;;2.6000000000000005;;
15557;SDS011;7880;50.110;9.372;2023-04-25T15:45:44;9.269230769230768;;;2.7;;
15557;SDS011;7880;50.110;9.372;2023-04-25T15:50:42;8.099999999999998;;;2.93076923076923;;
15557;SDS011;7880;50.110;9.372;2023-04-25T15:55:47;6.223076923076923;;;3.030769230769231;;
15557;SDS011;7880;50.110;9.372;2023-04-25T16:00:51;3.969230769230769;;;2.8;;
15557;SDS011;7880;50.110;9.372;2023-04-25T16:05:55;7.707692307692307;;;2.899999999999999;;
15557;SDS011;7880;50.110;9.372;2023-04-25T16:11:02;7.776923076923077;;;3.2999999999999994;;
15557;SDS011;7880;50.110;9.372;2023-04-25T16:16:04;9.076923076923077;;;3.0;;
15557;SDS011;7880;50.110;9.372;2023-04-25T16:21:17;9.007692307692306;;;2.3000000000000003;;
15557;SDS011;7880;50.110;9.372;2023-04-25T16:26:21;5.876923076923076;;;2.899999999999999;;
15557;SDS011;7880;50.110;9.372;2023-04-25T16:31:30;5.4;;;2.469230769230769;;
15557;SDS011;7880;50.110;9.372;2023-04-25T16:36:32;5.6692307692307695;;;1.8999999999999997;;
15557;SDS011;7880;50.110;9.372;2023-04-25T16:41:34;9.63846153846154;;;1.6999999999999995;;
15557;SDS011;7880;50.110;9.372;2023-04-25T16:46:39;8.407692307692308;;;1.8999999999999997;;
15557;SDS011;7880;50.110;9.372;2023-04-25T16:51:43;6.807692307692306;;;2.3000000000000003;;
15557;SDS011;7880;50.110;9.372;2023-04-25T16:56:51;4.06923076923077;;;1.4;;
15557;SDS011;7880;50.110;9.372;2023-04-25T17:01:52;5.838461538461538;;;2.8;;
15557;SDS011;7880;50.110;9.372;2023-04-25T17:06:56;6.207692307692307;;;2.6000000000000005;;
15557;SDS011;7880;50.110;9.372;2023-04-25T17:12:03;4.176923076923075;;;1.969230769230769;;
15557;SDS011;7880;50.110;9.372;2023-04-25T17:17:10;4.430769230769231;;;1.6999999999999995;;
15557;SDS011;7880;50.110;9.372;2023-04-25T17:23:19;5.761538461538463;;;2.630769230769231;;
15557;SDS011;7880;50.110;9.372;2023-04-25T17:28:31;6.561538461538463;;;2.953846153846153;;
15557;SDS011;7880;50.110;9.372;2023-04-25T17:33:27;4.200000000000001;;;2.0;;
15557;SDS011;7880;50.110;9.372;2023-04-25T17:38:33;9.39230769230769;;;2.3999999999999995;;
15557;SDS011;7880;50.110;9.372;2023-04-25T17:43:36;5.1692307692307695;;;1.8000000000000005;;
15557;SDS011;7880;50.110;9.372;2023-04-25T17:48:40;6.361538461538462;;;3.2;;
15557;SDS011;7880;50.110;9.372;2023-04-25T17:53:45;5.676923076923076;;;2.169230769230769;;
15557;SDS011;7880;50.110;9.372;2023-04-25T17:58:49;5.5076923076923086;;;1.8307692307692305;;
15557;SDS011;7880;50.110;9.372;2023-04-25T18:03:53;6.56923076923077;;;2.0;;
15557;SDS011;7880;50.110;9.372;2023-04-25T18:09:15;4.700000000000001;;;1.6999999999999995;;
15557;SDS011;7880;50.110;9.372;2023-04-25T18:14:13;3.5;;;1.6;;
15557;SDS011;7880;50.110;9.372;2023-04-25T18:19:21;3.6692307692307695;;;1.1307692307692305;;
15557;SDS011;7880;50.110;9.372;2023-04-25T18:24:20;4.738461538461538;;;1.5;;
15557;SDS011;7880;50.110;9.372;2023-04-25T18:29:24;6.223076923076923;;;3.161538461538461;;
15557;SDS011;7880;50.110;9.372;2023-04-25T18:34:11;4.561538461538461;;;3.2999999999999994;;
15557;SDS011;7880;50.110;9.372;2023-04-25T18:39:15;7.06923076923077;;;6.200000000000002;;
15557;SDS011;7880;50.110;9.372;2023-04-25T18:44:18;6.507692307692308;;;2.969230769230769;;
15557;SDS011;7880;50.110;9.372;2023-04-25T18:49:25;5.869230769230768;;;3.169230769230769;;
15557;SDS011;7880;50.110;9.372;2023-04-25T18:54:27;7.853846153846155;;;3.661538461538461;;
15557;SDS011;7880;50.110;9.372;2023-04-25T18:59:32;41.70769230769231;;;22.792307692307688;;
15557;SDS011;7880;50.110;9.372;2023-04-25T19:04:38;9.546153846153846;;;4.438461538461538;;
15557;SDS011;7880;50.110;9.372;2023-04-25T19:09:40;7.5;;;4.630769230769232;;
15557;SDS011;7880;50.110;9.372;2023-04-25T19:14:45;7.676923076923078;;;2.8;;
15557;SDS011;7880;50.110;9.372;2023-04-25T19:19:50;3.7692307692307705;;;2.0;;
15557;SDS011;7880;50.110;9.372;2023-04-25T19:24:53;7.830769230769231;;;2.830769230769231;;
15557;SDS011;7880;50.110;9.372;2023-04-25T19:30:08;3.469230769230769;;;2.0;;
15557;SDS011;7880;50.110;9.372;2023-04-25T19:35:03;6.769230769230769;;;3.399999999999999;;
15557;SDS011;7880;50.110;9.372;2023-04-25T19:40:10;7.038461538461541;;;2.6000000000000005;;
15557;SDS011;7880;50.110;9.372;2023-04-25T19:45:11;5.038461538461539;;;2.3000000000000003;;
15557;SDS011;7880;50.110;9.372;2023-04-25T19:50:14;4.438461538461538;;;2.3999999999999995;;
15557;SDS011;7880;50.110;9.372;2023-04-25T19:55:17;3.9615384615384626;;;1.7538461538461543;;
15557;SDS011;7880;50.110;9.372;2023-04-25T20:00:24;6.707692307692307;;;2.269230769230769;;
15557;SDS011;7880;50.110;9.372;2023-04-25T20:05:26;5.038461538461539;;;2.3999999999999995;;
15557;SDS011;7880;50.110;9.372;2023-04-25T20:10:29;9.769230769230768;;;4.1000000000000005;;
15557;SDS011;7880;50.110;9.372;2023-04-25T20:15:35;7.438461538461538;;;3.600000000000001;;
15557;SDS011;7880;50.110;9.372;2023-04-25T20:20:42;6.161538461538462;;;3.2999999999999994;;
15557;SDS011;7880;50.110;9.372;2023-04-25T20:25:45;5.93076923076923;;;3.899999999999999;;
15557;SDS011;7880;50.110;9.372;2023-04-25T20:30:52;7.438461538461538;;;3.130769230769232;;
15557;SDS011;7880;50.110;9.372;2023-04-25T20:35:53;5.723076923076921;;;3.2;;
15557;SDS011;7880;50.110;9.372;2023-04-25T20:41:02;7.43076923076923;;;3.3307692307692305;;
15557;SDS011;7880;50.110;9.372;2023-04-25T20:46:03;6.36153846153846;;;3.0769230769230775;;
15557;SDS011;7880;50.110;9.372;2023-04-25T20:51:06;8.123076923076924;;;3.2;;
15557;SDS011;7880;50.110;9.372;2023-04-25T20:56:12;11.346153846153847;;;4.06923076923077;;
15557;SDS011;7880;50.110;9.372;2023-04-25T21:01:16;5.738461538461537;;;3.5;;
15557;SDS011;7880;50.110;9.372;2023-04-25T21:06:21;7.869230769230768;;;3.130769230769232;;
15557;SDS011;7880;50.110;9.372;2023-04-25T21:11:23;6.63846153846154;;;2.6000000000000005;;
15557;SDS011;7880;50.110;9.372;2023-04-25T21:16:35;5.6;;;2.230769230769231;;
15557;SDS011;7880;50.110;9.372;2023-04-25T21:21:32;4.6230769230769235;;;2.3999999999999995;;
15557;SDS011;7880;50.110;9.372;2023-04-25T21:26:36;4.2384615384615385;;;2.369230769230769;;
15557;SDS011;7880;50.110;9.372;2023-04-25T21:31:52;7.63846153846154;;;2.569230769230769;;
15557;SDS011;7880;50.110;9.372;2023-04-25T21:36:44;3.738461538461539;;;1.8000000000000005;;
15557;SDS011;7880;50.110;9.372;2023-04-25T21:41:51;3.369230769230768;;;2.369230769230769;;
15557;SDS011;7880;50.110;9.372;2023-04-25T21:46:56;3.738461538461539;;;1.6999999999999995;;
15557;SDS011;7880;50.110;9.372;2023-04-25T21:51:58;3.2;;;1.9307692307692308;;
15557;SDS011;7880;50.110;9.372;2023-04-25T21:57:02;5.89230769230769;;;2.330769230769231;;
15557;SDS011;7880;50.110;9.372;2023-04-25T22:02:05;3.7999999999999994;;;1.9307692307692308;;
15557;SDS011;7880;50.110;9.372;2023-04-25T22:07:09;4.430769230769231;;;2.230769230769231;;
15557;SDS011;7880;50.110;9.372;2023-04-25T22:12:17;7.169230769230769;;;1.9307692307692308;;
15557;SDS011;7880;50.110;9.372;2023-04-25T22:17:27;2.8692307692307684;;;1.8999999999999997;;
15557;SDS011;7880;50.110;9.372;2023-04-25T22:22:24;7.584615384615388;;;2.3000000000000003;;
15557;SDS011;7880;50.110;9.372;2023-04-25T22:27:27;3.1384615384615393;;;1.7384615384615385;;
15557;SDS011;7880;50.110;9.372;2023-04-25T22:32:35;2.7692307692307705;;;1.8999999999999997;;
15557;SDS011;7880;50.110;9.372;2023-04-25T22:37:42;6.7230769230769205;;;2.038461538461539;;
15557;SDS011;7880;50.110;9.372;2023-04-25T22:42:44;5.1230769230769235;;;2.3999999999999995;;
15557;SDS011;7880;50.110;9.372;2023-04-25T22:47:47;10.900000000000004;;;4.630769230769232;;